• Join FlightAware (Why Join?)
  • Login
  • US Flag 
06:19PM EDT


 

Airport Tracker/Info


-or-


 

Live Flight TrackerFlight Track Log ✈ THY2476 ✈ 28-Jul-2013 ✈ LTBA / IST - LTAF / ADA

Flight Track Log - Related Links

Times and Time Zones

All times are in EDT time to prevent confusion due to time zone crossing. See the THY2476 flight status page for this flight to view local times or setup timezone preferences in your user account.

Time Position Orientation Groundspeed Altitude Reporting Facility
EDT Latitude Longitude Course Direction KTS MPH feet Rate Location/Type
06:49PM 40.7084 29.2992 126° Southeast  Level Estimated
06:50PM 40.6409 29.4181 127° Southeast  Level Estimated
06:51PM 40.5734 29.5368 127° Southeast  Level Estimated
06:52PM 40.5057 29.6553 127° Southeast  Level Estimated
06:53PM 40.4379 29.7735 127° Southeast  Level Estimated
06:54PM 40.3700 29.8914 127° Southeast  Level Estimated
06:55PM 40.3019 30.0091 127° Southeast  Level Estimated
06:56PM 40.2338 30.1266 127° Southeast  Level Estimated
06:57PM 40.1655 30.2439 127° Southeast  Level Estimated
06:58PM 40.0971 30.3609 127° Southeast  Level Estimated
06:59PM 40.0286 30.4777 127° Southeast  Level Estimated
07:00PM 39.9599 30.5942 128° Southeast  Level Estimated
07:01PM 39.8912 30.7105 128° Southeast  Level Estimated
07:02PM 39.8223 30.8266 128° Southeast  Level Estimated
07:03PM 39.7533 30.9425 128° Southeast  Level Estimated
07:04PM 39.6842 31.0581 128° Southeast  Level Estimated
07:05PM 39.6150 31.1735 128° Southeast  Level Estimated
07:06PM 39.5457 31.2886 128° Southeast  Level Estimated
07:07PM 39.4763 31.4035 128° Southeast  Level Estimated
07:08PM 39.4067 31.5182 128° Southeast  Level Estimated
07:09PM 39.3371 31.6327 128° Southeast  Level Estimated
07:10PM 39.2673 31.7469 128° Southeast  Level Estimated
07:11PM 39.1974 31.8609 128° Southeast  Level Estimated
07:12PM 39.1274 31.9747 128° Southeast  Level Estimated
07:13PM 39.0573 32.0883 128° Southeast  Level Estimated
07:14PM 38.9871 32.2016 129° Southeast  Level Estimated
07:15PM 38.9167 32.3147 129° Southeast  Level Estimated
07:16PM 38.8463 32.4276 129° Southeast  Level Estimated
07:17PM 38.7757 32.5402 129° Southeast  Level Estimated
07:18PM 38.7051 32.6527 129° Southeast  Level Estimated
07:19PM 38.6343 32.7649 129° Southeast  Level Estimated
07:20PM 38.5635 32.8769 129° Southeast  Level Estimated
07:21PM 38.4925 32.9887 129° Southeast  Level Estimated
07:22PM 38.4214 33.1002 129° Southeast  Level Estimated
07:23PM 38.3502 33.2115 129° Southeast  Level Estimated
07:24PM 38.2789 33.3227 129° Southeast  Level Estimated
07:25PM 38.2076 33.4336 129° Southeast  Level Estimated
07:26PM 38.1361 33.5442 129° Southeast  Level Estimated
07:27PM 38.0645 33.6547 129° Southeast  Level Estimated
07:28PM 37.9928 33.7649 130° Southeast  Level Estimated
07:29PM 37.9210 33.8750 130° Southeast  Level Estimated
07:30PM 37.8490 33.9848 130° Southeast  Level Estimated
07:31PM 37.7770 34.0944 130° Southeast  Level Estimated
07:32PM 37.7049 34.2038 130° Southeast  Level Estimated
07:33PM 37.6327 34.3129 130° Southeast  Level Estimated
07:34PM 37.5604 34.4219 130° Southeast  Level Estimated
07:35PM 37.4880 34.5306 130° Southeast  Level Estimated
07:36PM 37.4155 34.6392 130° Southeast  Level Estimated
07:37PM 37.3429 34.7475 130° Southeast  Level Estimated
07:38PM 37.2702 34.8556 130° Southeast  Level Estimated
07:39PM 37.1973 34.9635 130° Southeast  Level Estimated
07:40PM 37.1244 35.0712 130° Southeast  Level Estimated
07:41PM 37.0514 35.1787 130° Southeast  Level Estimated
07:42PM 36.9822 35.2804 130° Southeast  Level Estimated
07:43PM 36.9822 35.2804 202° Southwest  Level Estimated
07:44PM 36.9822 35.2804 202° Southwest  Level Estimated
07:45PM 36.9822 35.2804 202° Southwest  Level Estimated
07:46PM 36.9822 35.2804 202° Southwest  Level Estimated
07:47PM 36.9822 35.2804 202° Southwest  Level Estimated
07:48PM 36.9822 35.2804 202° Southwest  Level Estimated
07:49PM 36.9822 35.2804 202° Southwest  Level Estimated
07:50PM 36.9822 35.2804 202° Southwest  Level Estimated
07:51PM 36.9822 35.2804 202° Southwest  Level Estimated
07:52PM 36.9822 35.2804 202° Southwest  Level Estimated
07:53PM 36.9822 35.2804 202° Southwest  Level Estimated
07:54PM 36.9822 35.2804 202° Southwest  Level Estimated
07:55PM 36.9822 35.2804 202° Southwest  Level Estimated
07:56PM 36.9822 35.2804 202° Southwest  Level Estimated
07:57PM 36.9822 35.2804 202° Southwest  Level Estimated
07:58PM 36.9822 35.2804 202° Southwest  Level Estimated